Data for 10/26/2017

Time Sea-Level Adjusted Pressure Absolute Pressure Temperature Relative Humidity Dew Point   
(mb) (inHg) (mb) (inHg) (C) (F) (%) (C) (F)
00:05 1019 30.09 848 25.04 7.9 46.1 82 5 41.1
00:10 1019 30.09 848 25.04 7.7 45.9 82 4.9 40.8
00:15 1019 30.09 848 25.04 7.6 45.7 83 4.9 40.9
00:20 1019 30.09 848 25.04 7.6 45.6 83 4.9 40.8
00:25 1019 30.09 848 25.04 7.4 45.4 84 4.9 40.9
00:30 1019 30.09 849 25.07 7.4 45.3 85 5 40.9
00:35 1019 30.09 849 25.07 7.3 45.1 85 4.8 40.7
00:40 1019 30.09 849 25.07 7.1 44.8 83 4.4 39.9
00:45 1020 30.12 849 25.07 7 44.5 83 4.3 39.7
00:50 1020 30.12 849 25.07 6.7 44.1 80 3.6 38.4
00:55 1020 30.12 849 25.07 6.4 43.5 81 3.3 38
01:00 1020 30.12 849 25.07 6.1 43 80 2.9 37.2
01:05 1020 30.12 849 25.07 6 42.7 80 2.7 36.9
01:10 1020 30.12 849 25.07 5.9 42.5 77 2.2 36
01:15 1020 30.12 849 25.07 5.8 42.4 74 1.6 34.9
01:20 1020 30.12 850 25.1 5.7 42.2 75 1.7 35
01:25 1021 30.15 850 25.1 5.4 41.7 77 1.7 35.1
01:30 1021 30.15 850 25.1 4.8 40.7 80 1.7 35.1
01:35 1021 30.15 850 25.1 4.6 40.2 79 1.2 34.2
01:40 1021 30.15 850 25.1 4.5 40 77 0.7 33.3
01:45 1021 30.15 851 25.13 4.6 40.4 77 0.9 33.6
01:50 1021 30.15 851 25.13 4.6 40.2 76 0.7 33.3
01:55 1022 30.18 851 25.13 4.5 40.1 76 0.6 33.1
02:00 1022 30.18 851 25.13 4.2 39.6 77 0.5 32.8
02:05 1022 30.18 851 25.13 3.9 39.1 72 -0.7 30.8
02:10 1022 30.18 851 25.13 3.6 38.5 74 -0.6 30.8
02:15 1022 30.18 851 25.13 3.4 38.1 75 -0.7 30.7
02:20 1022 30.18 851 25.13 3.2 37.7 74 -0.9 30.3
02:25 1022 30.18 851 25.13 2.9 37.3 75 -1 30.1
02:30 1022 30.18 852 25.16 2.7 36.9 74 -1.4 29.5
02:35 1023 30.21 852 25.16 2.6 36.6 74 -1.7 29
02:40 1023 30.21 852 25.16 2.4 36.3 74 -1.8 28.8
02:45 1023 30.21 852 25.16 2.3 36.1 74 -1.9 28.6
02:50 1023 30.21 852 25.16 2.3 36.1 73 -2.2 28.1
02:55 1023 30.21 852 25.16 2.1 35.8 72 -2.4 27.7
03:00 1023 30.21 852 25.16 2 35.6 71 -2.7 27.1
03:05 1023 30.21 852 25.16 1.9 35.5 70 -3 26.5
03:10 1023 30.21 853 25.19 1.9 35.3 70 -3.1 26.4
03:15 1024 30.24 853 25.19 1.7 35.1 70 -3.1 26.4
03:20 1024 30.24 853 25.19 1.5 34.7 71 -3.2 26.2
03:25 1024 30.24 853 25.19 1.3 34.3 72 -3.2 26.2
03:30 1024 30.24 853 25.19 1.1 34 74 -3 26.6
03:35 1024 30.24 853 25.19 1 33.9 75 -2.9 26.7
03:40 1024 30.24 854 25.22 1 33.8 73 -3.2 26.2
03:45 1025 30.27 854 25.22 0.9 33.6 74 -3.2 26.3
03:50 1025 30.27 854 25.22 0.8 33.4 76 -3 26.7
03:55 1025 30.27 854 25.22 0.6 33.1 76 -3.1 26.4
04:00 1025 30.27 854 25.22 0.4 32.7 79 -2.9 26.9
04:05 1025 30.27 854 25.22 0.3 32.5 79 -3 26.6
04:10 1025 30.27 854 25.22 0.2 32.4 79 -3 26.6
04:15 1025 30.27 855 25.25 0 32.1 79 -3.1 26.4
04:20 1025 30.27 855 25.25 -0 32 80 -3.1 26.5
04:25 1026 30.3 855 25.25 -0.1 31.8 81 -3 26.5
04:30 1026 30.3 855 25.25 -0.2 31.6 81 -3.1 26.5
04:35 1026 30.3 855 25.25 -0.4 31.4 83 -2.9 26.7
04:40 1026 30.3 855 25.25 -0.6 31 85 -2.8 27
04:45 1026 30.3 855 25.25 -0.7 30.7 87 -2.6 27.3
04:50 1026 30.3 855 25.25 -0.9 30.4 87 -2.8 26.9
04:55 1026 30.3 855 25.25 -1 30.2 87 -2.9 26.9
05:00 1026 30.3 856 25.28 -1.1 30.1 88 -2.8 26.9
05:05 1026 30.3 856 25.28 -1.1 29.9 88 -2.9 26.8
05:10 1027 30.33 856 25.28 -1.2 29.8 88 -2.9 26.7
05:15 1027 30.33 856 25.28 -1.3 29.6 89 -2.9 26.7
05:20 1027 30.33 856 25.28 -1.4 29.5 89 -3 26.7
05:25 1027 30.33 856 25.28 -1.4 29.5 90 -2.9 26.8
05:30 1027 30.33 856 25.28 -1.4 29.5 90 -2.8 26.9
05:35 1027 30.33 856 25.28 -1.3 29.7 90 -2.7 27.2
05:40 1027 30.33 856 25.28 -1.2 29.9 90 -2.5 27.4
05:45 1027 30.33 856 25.28 -0.9 30.3 90 -2.4 27.7
05:50 1027 30.33 857 25.31 -0.8 30.6 87 -2.7 27.1
05:55 1028 30.36 857 25.31 -0.7 30.7 84 -3.1 26.5
06:00 1028 30.36 857 25.31 -1.1 30.1 86 -3.2 26.3
06:05 1028 30.36 857 25.31 -1.5 29.3 87 -3.3 26
06:10 1028 30.36 857 25.31 -1.6 29.1 87 -3.5 25.7
06:15 1028 30.36 857 25.31 -1.6 29.1 87 -3.5 25.7
06:20 1028 30.36 857 25.31 -1.7 29 87 -3.5 25.7
06:25 1028 30.36 857 25.31 -1.7 29 87 -3.6 25.6
06:30 1028 30.36 857 25.31 -1.6 29.1 86 -3.7 25.4
06:35 1028 30.36 857 25.31 -1.6 29 86 -3.8 25.2
06:40 1028 30.36 857 25.31 -1.7 29 85 -3.9 25
06:45 1028 30.36 857 25.31 -1.7 28.9 83 -4.2 24.5
06:50 1028 30.36 857 25.31 -1.7 29 83 -4.2 24.5
06:55 1028 30.36 858 25.34 -1.6 29.1 83 -4.2 24.5
07:00 1028 30.36 858 25.34 -1.6 29.1 83 -4.2 24.5
07:05 1028 30.36 858 25.34 -1.6 29.1 81 -4.5 23.8
07:10 1028 30.36 858 25.34 -1.6 29.1 81 -4.5 23.8
07:15 1028 30.36 858 25.34 -1.7 29 81 -4.6 23.7
07:20 1028 30.36 858 25.34 -1.6 29.1 80 -4.7 23.5
07:25 1029 30.39 858 25.34 -1.6 29.1 79 -4.8 23.4
07:30 1029 30.39 858 25.34 -1.6 29.1 80 -4.7 23.6
07:35 1029 30.39 858 25.34 -1.6 29.1 79 -4.7 23.6
07:40 1029 30.39 858 25.34 -1.6 29 80 -4.7 23.6
07:45 1029 30.39 858 25.34 -1.6 29.1 79 -4.8 23.3
07:50 1028 30.36 858 25.34 -1.6 29 79 -4.9 23.2
07:55 1028 30.36 858 25.34 -1.6 29.1 79 -4.8 23.3
08:00 1029 30.39 858 25.34 -1.6 29.1 79 -4.8 23.3
08:05 1029 30.39 858 25.34 -1.6 29 79 -4.9 23.3
08:10 1029 30.39 858 25.34 -1.6 29.1 79 -4.9 23.3
08:15 1029 30.39 858 25.34 -1.6 29.2 78 -4.8 23.3
08:20 1029 30.39 858 25.34 -1.6 29.1 78 -4.9 23.2
08:25 1029 30.39 858 25.34 -1.6 29.2 78 -5 23.1
08:30 1029 30.39 858 25.34 -1.5 29.3 77 -5 23
08:35 1029 30.39 858 25.34 -1.5 29.3 77 -4.9 23.1
08:40 1029 30.39 858 25.34 -1.5 29.3 78 -4.9 23.2
08:45 1029 30.39 858 25.34 -1.4 29.5 77 -4.9 23.1
08:50 1029 30.39 858 25.34 -1.4 29.5 77 -5 23
08:55 1029 30.39 858 25.34 -1.4 29.4 76 -5.1 22.8
09:00 1029 30.39 858 25.34 -1.4 29.4 76 -5.1 22.9
09:05 1029 30.39 858 25.34 -1.4 29.5 76 -5.1 22.7
09:10 1029 30.39 858 25.34 -1.5 29.3 74 -5.5 22.1
09:15 1029 30.39 858 25.34 -1.4 29.5 75 -5.3 22.4
09:20 1029 30.39 858 25.34 -1.3 29.7 76 -5 23
09:25 1029 30.39 858 25.34 -1.2 29.8 74 -5.3 22.5
09:30 1029 30.39 858 25.34 -1.3 29.7 75 -5.1 22.8
09:35 1029 30.39 858 25.34 -1.2 29.8 75 -5.1 22.8
09:40 1029 30.39 858 25.34 -1.3 29.7 73 -5.5 22.1
09:45 1029 30.39 858 25.34 -1.2 29.9 73 -5.4 22.2
09:50 1029 30.39 858 25.34 -1.3 29.7 74 -5.4 22.3
09:55 1029 30.39 858 25.34 -1.1 29.9 72 -5.5 22.1
10:00 1029 30.39 859 25.37 -1.2 29.8 74 -5.4 22.3
10:05 1029 30.39 859 25.37 -1.1 29.9 74 -5.2 22.7
10:10 1029 30.39 859 25.37 -0.9 30.4 72 -5.3 22.5
10:15 1030 30.42 859 25.37 -0.9 30.4 71 -5.5 22.2
10:20 1030 30.42 859 25.37 -0.8 30.5 71 -5.4 22.3
10:25 1030 30.42 859 25.37 -0.9 30.4 69 -5.8 21.6
10:30 1030 30.42 859 25.37 -0.9 30.4 70 -5.6 21.9
10:35 1030 30.42 859 25.37 -0.7 30.7 69 -5.7 21.7
10:40 1030 30.42 859 25.37 -0.7 30.8 68 -5.9 21.4
10:45 1030 30.42 859 25.37 -0.8 30.5 69 -5.9 21.4
10:50 1030 30.42 859 25.37 -0.6 30.9 69 -5.6 21.9
10:55 1030 30.42 859 25.37 -0.3 31.4 66 -5.9 21.3
11:00 1030 30.42 859 25.37 -0.1 31.9 65 -5.8 21.5
11:05 1030 30.42 859 25.37 0.2 32.4 65 -5.6 22
11:10 1030 30.42 859 25.37 0.4 32.8 63 -5.7 21.8
11:15 1030 30.42 859 25.37 0.7 33.2 61 -6.1 21
11:20 1030 30.42 859 25.37 0.8 33.4 61 -5.8 21.5
11:25 1030 30.42 859 25.37 0.9 33.7 62 -5.6 21.9
11:30 1030 30.42 859 25.37 1.3 34.4 60 -5.6 21.9
11:35 1030 30.42 859 25.37 1.5 34.8 59 -5.7 21.7
11:40 1030 30.42 859 25.37 1.4 34.6 59 -5.6 21.9
11:45 1030 30.42 859 25.37 1.5 34.6 57 -6.2 20.9
11:50 1030 30.42 859 25.37 0.9 33.6 59 -6.2 20.8
11:55 1030 30.42 859 25.37 0.4 32.8 61 -6.3 20.6
12:00 1030 30.42 859 25.37 0.3 32.6 62 -6.2 20.9
12:05 1030 30.42 859 25.37 0.7 33.2 59 -6.4 20.5
12:10 1030 30.42 859 25.37 0.9 33.6 59 -6.1 21
12:15 1030 30.42 859 25.37 1.1 34 60 -5.9 21.4
12:20 1030 30.42 859 25.37 1.1 34.1 59 -5.9 21.4
12:25 1030 30.42 859 25.37 1.4 34.6 58 -6 21.2
12:30 1030 30.42 859 25.37 1.6 34.8 58 -5.8 21.6
12:35 1030 30.42 859 25.37 1.7 35 57 -5.9 21.4
12:40 1030 30.42 859 25.37 1.3 34.3 61 -5.4 22.3
12:45 1030 30.42 859 25.37 1.4 34.5 61 -5.3 22.5
12:50 1030 30.42 859 25.37 1.7 35 58 -5.7 21.7
12:55 1030 30.42 859 25.37 1.7 35 58 -5.7 21.7
13:00 1030 30.42 859 25.37 1.3 34.3 62 -5.3 22.5
13:05 1030 30.42 859 25.37 1.4 34.4 59 -5.8 21.5
13:10 1030 30.42 859 25.37 1.7 35 56 -6.3 20.7
13:15 1030 30.42 859 25.37 1.8 35.2 58 -5.7 21.7
13:20 1029 30.39 859 25.37 1.8 35.2 57 -5.8 21.6
13:25 1029 30.39 858 25.34 2 35.5 59 -5.2 22.7
13:30 1029 30.39 858 25.34 1.9 35.3 59 -5.4 22.3
13:35 1029 30.39 858 25.34 2.2 36 52 -6.6 20.2
13:40 1029 30.39 858 25.34 2.5 36.4 55 -5.6 21.9
13:45 1029 30.39 858 25.34 1.8 35.2 57 -5.8 21.5
13:50 1029 30.39 858 25.34 1.8 35.2 55 -6.2 20.8
13:55 1029 30.39 858 25.34 2 35.6 56 -5.8 21.6
14:00 1029 30.39 858 25.34 2.1 35.8 56 -5.8 21.6
14:05 1029 30.39 858 25.34 1.7 35.1 59 -5.4 22.3
14:10 1029 30.39 858 25.34 1.8 35.2 58 -5.5 22
14:15 1028 30.36 858 25.34 1.7 35.1 57 -5.9 21.3
14:20 1028 30.36 858 25.34 1.3 34.4 60 -5.6 21.9
14:25 1028 30.36 858 25.34 1.6 34.8 57 -6 21.2
14:30 1028 30.36 857 25.31 1.7 35 57 -5.8 21.5
14:35 1028 30.36 857 25.31 2 35.5 57 -5.7 21.7
14:40 1028 30.36 857 25.31 1.6 35 58 -5.7 21.7
14:45 1028 30.36 857 25.31 2.1 35.8 55 -5.9 21.4
14:50 1028 30.36 857 25.31 2.6 36.7 55 -5.6 21.9
14:55 1028 30.36 857 25.31 2.7 36.8 57 -5.1 22.8
15:00 1028 30.36 857 25.31 2.7 36.8 58 -4.8 23.4
15:05 1028 30.36 857 25.31 2.7 36.9 54 -5.7 21.7
15:10 1028 30.36 857 25.31 2.3 36.2 56 -5.5 22
15:15 1028 30.36 857 25.31 2.6 36.6 55 -5.5 22
15:20 1028 30.36 857 25.31 3 37.3 54 -5.5 22.2
15:25 1028 30.36 857 25.31 3.1 37.5 53 -5.7 21.8
15:30 1028 30.36 857 25.31 2.9 37.3 55 -5.3 22.5
15:35 1028 30.36 857 25.31 3.1 37.6 53 -5.4 22.2
15:40 1028 30.36 857 25.31 2.8 37.1 56 -5.2 22.7
15:45 1028 30.36 857 25.31 3.4 38.2 52 -5.4 22.3
15:50 1028 30.36 857 25.31 3.9 39.1 50 -5.5 22
15:55 1028 30.36 857 25.31 4 39.1 51 -5.2 22.7
16:00 1028 30.36 857 25.31 4.3 39.8 50 -5.3 22.5
16:05 1028 30.36 857 25.31 4.2 39.5 51 -5 23.1
16:10 1028 30.36 857 25.31 3.9 39.1 52 -5 23
16:15 1028 30.36 857 25.31 3.8 38.9 52 -5.1 22.8
16:20 1028 30.36 857 25.31 3.7 38.7 53 -5.1 22.9
16:25 1028 30.36 857 25.31 4.1 39.3 49 -5.7 21.8
16:30 1028 30.36 857 25.31 4.5 40.1 48 -5.5 22.1
16:35 1028 30.36 857 25.31 4.3 39.8 49 -5.4 22.2
16:40 1028 30.36 857 25.31 4.1 39.4 50 -5.4 22.3
16:45 1028 30.36 857 25.31 4.1 39.3 49 -5.6 21.8
16:50 1027 30.33 857 25.31 4.3 39.8 50 -5.2 22.6
16:55 1027 30.33 857 25.31 4.5 40.1 49 -5.3 22.4
17:00 1028 30.36 857 25.31 4.6 40.2 48 -5.4 22.2
17:05 1028 30.36 857 25.31 5 41 47 -5.5 22.1
17:10 1028 30.36 857 25.31 5.1 41.1 45 -5.8 21.5
17:15 1028 30.36 857 25.31 5.4 41.6 46 -5.5 22.2
17:20 1028 30.36 857 25.31 5.1 41.2 47 -5.4 22.3
17:25 1028 30.36 857 25.31 4.9 40.9 46 -5.8 21.6
17:30 1028 30.36 857 25.31 5 40.9 47 -5.5 22.1
17:35 1028 30.36 857 25.31 5 40.9 47 -5.4 22.3
17:40 1028 30.36 857 25.31 4.7 40.5 48 -5.4 22.4
17:45 1028 30.36 857 25.31 4.4 39.9 49 -5.4 22.3
17:50 1027 30.33 857 25.31 4.3 39.7 49 -5.5 22.2
17:55 1027 30.33 856 25.28 4.1 39.5 50 -5.4 22.4
18:00 1027 30.33 856 25.28 3.6 38.5 53 -5.1 22.9
18:05 1027 30.33 856 25.28 3.3 37.9 53 -5.5 22.1
18:10 1027 30.33 856 25.28 3.1 37.6 54 -5.3 22.5
18:15 1027 30.33 856 25.28 2.8 37.1 54 -5.5 22.1
18:20 1027 30.33 856 25.28 2.6 36.8 56 -5.3 22.5
18:25 1027 30.33 856 25.28 2.5 36.5 56 -5.3 22.4
18:30 1027 30.33 856 25.28 2.5 36.4 56 -5.4 22.3
18:35 1027 30.33 856 25.28 2.4 36.3 58 -5 22.9
18:40 1026 30.3 856 25.28 2 35.6 60 -5.1 22.9
18:45 1027 30.33 856 25.28 1.6 34.9 62 -4.8 23.3
18:50 1027 30.33 856 25.28 1.4 34.6 63 -4.8 23.3
18:55 1027 30.33 856 25.28 1.3 34.4 64 -4.7 23.5
19:00 1027 30.33 856 25.28 1.1 33.9 70 -3.8 25.2
19:05 1027 30.33 856 25.28 0.7 33.2 73 -3.6 25.5
19:10 1027 30.33 856 25.28 0.6 33 73 -3.7 25.3
19:15 1027 30.33 856 25.28 0.5 32.8 73 -3.9 25.1
19:20 1027 30.33 856 25.28 0.3 32.5 74 -3.7 25.3
19:25 1027 30.33 856 25.28 0.2 32.3 76 -3.6 25.6
19:30 1027 30.33 856 25.28 0.1 32.1 77 -3.5 25.8
19:35 1027 30.33 856 25.28 0 32 78 -3.5 25.8
19:40 1027 30.33 856 25.28 -0.1 31.9 78 -3.5 25.7
19:45 1027 30.33 856 25.28 -0 32 77 -3.5 25.7
19:50 1027 30.33 856 25.28 0 32 77 -3.5 25.7
19:55 1027 30.33 856 25.28 0.2 32.3 76 -3.6 25.6
20:00 1027 30.33 856 25.28 0.4 32.7 74 -3.8 25.2
20:05 1027 30.33 856 25.28 0.6 33 73 -3.7 25.3
20:10 1027 30.33 856 25.28 0.5 32.9 74 -3.6 25.5
20:15 1027 30.33 856 25.28 0.4 32.7 75 -3.5 25.7
20:20 1027 30.33 856 25.28 0.4 32.8 74 -3.7 25.3
20:25 1027 30.33 856 25.28 0.5 32.9 74 -3.6 25.4
20:30 1027 30.33 856 25.28 0.5 32.8 73 -3.8 25.1
20:35 1027 30.33 856 25.28 0.5 33 73 -3.8 25.2
20:40 1027 30.33 856 25.28 0.7 33.2 72 -3.8 25.2
20:45 1027 30.33 856 25.28 0.7 33.2 72 -3.9 25
20:50 1027 30.33 856 25.28 0.7 33.2 71 -4 24.8
20:55 1027 30.33 856 25.28 0.7 33.2 72 -3.8 25.1
21:00 1027 30.33 856 25.28 0.6 33.1 72 -3.8 25.1
21:05 1027 30.33 856 25.28 0.5 32.9 73 -3.8 25.2
21:10 1027 30.33 856 25.28 0.4 32.7 73 -3.9 25
21:15 1027 30.33 856 25.28 0.3 32.6 73 -4 24.7
21:20 1027 30.33 856 25.28 0.3 32.5 73 -4 24.9
21:25 1027 30.33 856 25.28 0.3 32.5 73 -4 24.7
21:30 1027 30.33 856 25.28 0.4 32.6 72 -4.1 24.5
21:35 1027 30.33 856 25.28 0.5 32.8 71 -4.3 24.3
21:40 1027 30.33 856 25.28 0.5 33 72 -4 24.8
21:45 1027 30.33 856 25.28 0.6 33.1 70 -4.3 24.3
21:50 1027 30.33 856 25.28 0.7 33.2 71 -4 24.8
21:55 1027 30.33 856 25.28 0.6 33 72 -4 24.8
22:00 1027 30.33 856 25.28 0.5 32.9 72 -3.9 24.9
22:05 1027 30.33 856 25.28 0.5 33 72 -4 24.8
22:10 1027 30.33 856 25.28 0.6 33.1 72 -4 24.9
22:15 1027 30.33 856 25.28 0.6 33 72 -3.9 24.9
22:20 1027 30.33 856 25.28 0.6 33.1 72 -3.9 24.9
22:25 1027 30.33 856 25.28 0.5 33 72 -3.9 25
22:30 1027 30.33 856 25.28 0.5 32.9 72 -3.9 24.9
22:35 1027 30.33 856 25.28 0.5 32.9 73 -3.8 25.1
22:40 1027 30.33 856 25.28 0.5 32.9 72 -3.9 25
22:45 1027 30.33 856 25.28 0.6 33.1 71 -4.1 24.7
22:50 1027 30.33 856 25.28 0.7 33.3 70 -4.1 24.6
22:55 1027 30.33 856 25.28 0.8 33.4 71 -3.9 25
23:00 1027 30.33 856 25.28 0.8 33.4 71 -3.9 24.9
23:05 1027 30.33 856 25.28 0.8 33.5 70 -4 24.8
23:10 1027 30.33 856 25.28 0.9 33.6 70 -4 24.8
23:15 1027 30.33 856 25.28 0.9 33.7 69 -4.2 24.5
23:20 1027 30.33 856 25.28 1.1 33.9 71 -3.7 25.3
23:25 1027 30.33 856 25.28 1.2 34.1 69 -3.8 25.1
23:30 1027 30.33 856 25.28 1.3 34.3 70 -3.5 25.7
23:35 1027 30.33 856 25.28 1.3 34.4 70 -3.5 25.7
23:40 1027 30.33 856 25.28 1.3 34.3 71 -3.5 25.8
23:45 1027 30.33 856 25.28 1.1 33.9 72 -3.4 25.9
23:50 1027 30.33 856 25.28 0.7 33.3 74 -3.4 25.9
23:55 1027 30.33 856 25.28 0.5 32.9 76 -3.3 26
24:00 1027 30.33 856 25.28 0.3 32.5 76 -3.4 25.8